Airfield :
LOGIN :

Register | Disclaimer

   EN    FR    IT 

 










Legend :    VFR   Marginal VFR   IFR   Intensive IFR   Very Intensive IFR
Visi :
Ceiling :
>= 8 km
>= 3000ft
5 to 8 km
1000 to 3000 ft
1500m to 5 km
500 to 1000 ft
800 to 1500m
200 to 500 ft
< 800m
< 200 ft
Symbols :   Thunderstorms  Fog  Heavy snow  Heavy precipitations  Wind > 20 kt
SIGMETs :     Misc.  Thunderstorms  Icing  Turbulence  Mountain Waves  Volcanic Ashes






- Airport Elevation : 459 ft
- IATA code : CER


LFRC - Cherbourg / Maupertus

CURRENT METAR :
  • 082130Z AUTO 27017KT 9999 SCT039 BKN046 BKN054 07/00 Q1003

EXPIRED METARs :
  • 082100Z AUTO 27015KT 9999 SCT039 BKN050 BKN210 07/00 Q1003
  • 082030Z AUTO 27015KT 9999 BKN036 BKN064 07/01 Q1002
  • 082000Z AUTO 27014KT 9999 FEW032 BKN039 BKN047 07/01 Q1002
  • 081930Z AUTO 27011KT 9999 BKN036 07/01 Q1002
  • 081900Z AUTO 30017KT 9999 SCT038 BKN047 08/00 Q1002

TAF TAF LFRC
Valid from the 08 at 15:00 until the 09 at 00:00 UTC


081400Z 0815/0824 23015G25KT 9999 BKN030
TEMPO 0815/0824 28020G35KT 4000 SHRA BKN020CB
PROB40
TEMPO 0815/0821 28020G45KT 2000 TSRAGS BKN015CB



MET'MAP, your aeronautical weather chart ! - Copyright ORBIFLY December 2007 - Disclaimer

ORBIFLY MET'MAP TEAM :

Programming & Development : Alexandra Zaïnal
Concept & original design : Baudouin d'Aumeries
Assistance for programming : Marc-Olivier Méhu
Technical & hardware support : Manuel Goepfert

Contact : metmap@orbifly.com




SOURCES & CREDITS :

   NOAA